sensor_id;sensor_type;location;lat;lon;timestamp;P1;durP1;ratioP1;P2;durP2;ratioP2
6109;SDS011;3085;49.444;11.054;2023-02-28T00:01:19;3.93;;;3.20;;
6109;SDS011;3085;49.444;11.054;2023-02-28T00:03:47;11.57;;;3.47;;
6109;SDS011;3085;49.444;11.054;2023-02-28T00:06:14;2.90;;;2.70;;
6109;SDS011;3085;49.444;11.054;2023-02-28T00:08:41;4.20;;;3.30;;
6109;SDS011;3085;49.444;11.054;2023-02-28T00:11:08;8.43;;;2.90;;
6109;SDS011;3085;49.444;11.054;2023-02-28T00:13:39;8.00;;;3.47;;
6109;SDS011;3085;49.444;11.054;2023-02-28T00:16:09;5.23;;;3.17;;
6109;SDS011;3085;49.444;11.054;2023-02-28T00:18:38;2.77;;;2.57;;
6109;SDS011;3085;49.444;11.054;2023-02-28T00:21:05;7.00;;;3.03;;
6109;SDS011;3085;49.444;11.054;2023-02-28T00:23:33;6.43;;;3.33;;
6109;SDS011;3085;49.444;11.054;2023-02-28T00:26:01;4.60;;;3.23;;
6109;SDS011;3085;49.444;11.054;2023-02-28T00:28:28;7.90;;;2.87;;
6109;SDS011;3085;49.444;11.054;2023-02-28T00:30:55;5.43;;;3.70;;
6109;SDS011;3085;49.444;11.054;2023-02-28T00:33:23;5.80;;;3.00;;
6109;SDS011;3085;49.444;11.054;2023-02-28T00:35:50;3.10;;;2.90;;
6109;SDS011;3085;49.444;11.054;2023-02-28T00:38:17;3.00;;;2.80;;
6109;SDS011;3085;49.444;11.054;2023-02-28T00:40:44;6.17;;;3.33;;
6109;SDS011;3085;49.444;11.054;2023-02-28T00:43:11;3.50;;;3.20;;
6109;SDS011;3085;49.444;11.054;2023-02-28T00:45:38;4.13;;;3.27;;
6109;SDS011;3085;49.444;11.054;2023-02-28T00:48:05;7.73;;;3.87;;
6109;SDS011;3085;49.444;11.054;2023-02-28T00:50:33;3.50;;;3.17;;
6109;SDS011;3085;49.444;11.054;2023-02-28T00:53:00;3.17;;;2.87;;
6109;SDS011;3085;49.444;11.054;2023-02-28T00:55:27;5.27;;;3.43;;
6109;SDS011;3085;49.444;11.054;2023-02-28T00:57:54;3.20;;;2.90;;
6109;SDS011;3085;49.444;11.054;2023-02-28T01:00:21;4.50;;;3.47;;
6109;SDS011;3085;49.444;11.054;2023-02-28T01:02:48;5.40;;;3.63;;
6109;SDS011;3085;49.444;11.054;2023-02-28T01:05:15;3.57;;;3.27;;
6109;SDS011;3085;49.444;11.054;2023-02-28T01:07:43;6.90;;;3.60;;
6109;SDS011;3085;49.444;11.054;2023-02-28T01:10:10;8.13;;;4.00;;
6109;SDS011;3085;49.444;11.054;2023-02-28T01:12:37;13.90;;;3.90;;
6109;SDS011;3085;49.444;11.054;2023-02-28T01:15:04;4.30;;;3.60;;
6109;SDS011;3085;49.444;11.054;2023-02-28T01:17:32;4.00;;;3.50;;
6109;SDS011;3085;49.444;11.054;2023-02-28T01:19:59;4.23;;;3.30;;
6109;SDS011;3085;49.444;11.054;2023-02-28T01:22:25;19.23;;;3.60;;
6109;SDS011;3085;49.444;11.054;2023-02-28T01:24:54;4.37;;;3.67;;
6109;SDS011;3085;49.444;11.054;2023-02-28T01:27:21;6.80;;;3.60;;
6109;SDS011;3085;49.444;11.054;2023-02-28T01:29:48;5.67;;;3.23;;
6109;SDS011;3085;49.444;11.054;2023-02-28T01:32:16;3.77;;;3.37;;
6109;SDS011;3085;49.444;11.054;2023-02-28T01:34:43;3.30;;;2.80;;
6109;SDS011;3085;49.444;11.054;2023-02-28T01:37:10;7.23;;;2.90;;
6109;SDS011;3085;49.444;11.054;2023-02-28T01:39:37;5.77;;;3.27;;
6109;SDS011;3085;49.444;11.054;2023-02-28T01:42:05;3.63;;;3.23;;
6109;SDS011;3085;49.444;11.054;2023-02-28T01:47:26;3.50;;;2.90;;
6109;SDS011;3085;49.444;11.054;2023-02-28T01:49:57;4.97;;;3.30;;
6109;SDS011;3085;49.444;11.054;2023-02-28T01:52:25;5.23;;;2.90;;
6109;SDS011;3085;49.444;11.054;2023-02-28T01:54:53;6.10;;;3.50;;
6109;SDS011;3085;49.444;11.054;2023-02-28T01:57:25;8.90;;;6.17;;
6109;SDS011;3085;49.444;11.054;2023-02-28T01:59:57;5.37;;;2.97;;
6109;SDS011;3085;49.444;11.054;2023-02-28T02:02:26;6.93;;;3.63;;
6109;SDS011;3085;49.444;11.054;2023-02-28T02:04:55;5.87;;;3.57;;
6109;SDS011;3085;49.444;11.054;2023-02-28T02:07:26;8.10;;;3.30;;
6109;SDS011;3085;49.444;11.054;2023-02-28T02:10:01;6.83;;;3.40;;
6109;SDS011;3085;49.444;11.054;2023-02-28T02:12:35;3.53;;;3.20;;
6109;SDS011;3085;49.444;11.054;2023-02-28T02:15:14;5.17;;;3.33;;
6109;SDS011;3085;49.444;11.054;2023-02-28T02:17:44;6.70;;;3.80;;
6109;SDS011;3085;49.444;11.054;2023-02-28T02:23:33;4.60;;;3.40;;
6109;SDS011;3085;49.444;11.054;2023-02-28T02:26:30;10.23;;;4.17;;
6109;SDS011;3085;49.444;11.054;2023-02-28T02:32:16;3.97;;;3.13;;
6109;SDS011;3085;49.444;11.054;2023-02-28T02:35:00;3.83;;;3.27;;
6109;SDS011;3085;49.444;11.054;2023-02-28T02:37:36;8.03;;;3.03;;
6109;SDS011;3085;49.444;11.054;2023-02-28T02:40:10;10.30;;;3.90;;
6109;SDS011;3085;49.444;11.054;2023-02-28T02:42:45;6.43;;;3.73;;
6109;SDS011;3085;49.444;11.054;2023-02-28T02:45:19;4.23;;;3.33;;
6109;SDS011;3085;49.444;11.054;2023-02-28T02:47:51;5.27;;;3.63;;
6109;SDS011;3085;49.444;11.054;2023-02-28T02:50:22;6.63;;;3.20;;
6109;SDS011;3085;49.444;11.054;2023-02-28T02:52:52;3.73;;;2.80;;
6109;SDS011;3085;49.444;11.054;2023-02-28T02:55:23;5.23;;;4.00;;
6109;SDS011;3085;49.444;11.054;2023-02-28T02:57:52;4.00;;;3.60;;
6109;SDS011;3085;49.444;11.054;2023-02-28T03:00:25;6.00;;;3.93;;
6109;SDS011;3085;49.444;11.054;2023-02-28T03:02:56;8.20;;;4.60;;
6109;SDS011;3085;49.444;11.054;2023-02-28T03:05:26;5.40;;;4.80;;
6109;SDS011;3085;49.444;11.054;2023-02-28T03:07:55;4.87;;;3.53;;
6109;SDS011;3085;49.444;11.054;2023-02-28T03:10:26;6.60;;;3.60;;
6109;SDS011;3085;49.444;11.054;2023-02-28T03:13:17;8.43;;;4.07;;
6109;SDS011;3085;49.444;11.054;2023-02-28T03:16:07;4.50;;;3.90;;
6109;SDS011;3085;49.444;11.054;2023-02-28T03:18:58;11.47;;;4.50;;
6109;SDS011;3085;49.444;11.054;2023-02-28T03:21:38;7.60;;;4.23;;
6109;SDS011;3085;49.444;11.054;2023-02-28T03:24:11;6.37;;;4.77;;
6109;SDS011;3085;49.444;11.054;2023-02-28T03:26:43;4.47;;;3.97;;
6109;SDS011;3085;49.444;11.054;2023-02-28T03:29:18;5.77;;;4.20;;
6109;SDS011;3085;49.444;11.054;2023-02-28T03:31:52;6.47;;;4.07;;
6109;SDS011;3085;49.444;11.054;2023-02-28T03:34:24;5.00;;;3.97;;
6109;SDS011;3085;49.444;11.054;2023-02-28T03:36:57;5.60;;;3.87;;
6109;SDS011;3085;49.444;11.054;2023-02-28T03:39:30;8.87;;;5.00;;
6109;SDS011;3085;49.444;11.054;2023-02-28T03:42:03;5.90;;;3.67;;
6109;SDS011;3085;49.444;11.054;2023-02-28T03:44:35;11.80;;;4.30;;
6109;SDS011;3085;49.444;11.054;2023-02-28T03:47:06;9.20;;;4.37;;
6109;SDS011;3085;49.444;11.054;2023-02-28T03:49:38;9.50;;;4.60;;
6109;SDS011;3085;49.444;11.054;2023-02-28T03:52:11;4.73;;;3.60;;
6109;SDS011;3085;49.444;11.054;2023-02-28T03:54:41;9.00;;;4.47;;
6109;SDS011;3085;49.444;11.054;2023-02-28T03:57:10;8.23;;;4.40;;
6109;SDS011;3085;49.444;11.054;2023-02-28T03:59:43;13.43;;;4.50;;
6109;SDS011;3085;49.444;11.054;2023-02-28T04:02:14;14.23;;;5.93;;
6109;SDS011;3085;49.444;11.054;2023-02-28T04:04:41;6.30;;;3.80;;
6109;SDS011;3085;49.444;11.054;2023-02-28T04:07:15;7.17;;;4.40;;
6109;SDS011;3085;49.444;11.054;2023-02-28T04:09:43;7.97;;;4.23;;
6109;SDS011;3085;49.444;11.054;2023-02-28T04:12:10;3.97;;;3.63;;
6109;SDS011;3085;49.444;11.054;2023-02-28T04:14:37;14.37;;;4.40;;
6109;SDS011;3085;49.444;11.054;2023-02-28T04:17:04;4.90;;;4.10;;
6109;SDS011;3085;49.444;11.054;2023-02-28T04:19:31;6.10;;;3.80;;
6109;SDS011;3085;49.444;11.054;2023-02-28T04:21:57;6.57;;;4.53;;
6109;SDS011;3085;49.444;11.054;2023-02-28T04:24:26;11.67;;;4.50;;
6109;SDS011;3085;49.444;11.054;2023-02-28T04:26:54;7.60;;;4.40;;
6109;SDS011;3085;49.444;11.054;2023-02-28T04:29:23;8.77;;;4.90;;
6109;SDS011;3085;49.444;11.054;2023-02-28T04:31:51;4.53;;;3.80;;
6109;SDS011;3085;49.444;11.054;2023-02-28T04:34:19;5.03;;;4.27;;
6109;SDS011;3085;49.444;11.054;2023-02-28T04:36:47;8.60;;;3.80;;
6109;SDS011;3085;49.444;11.054;2023-02-28T04:39:15;5.50;;;3.70;;
6109;SDS011;3085;49.444;11.054;2023-02-28T04:41:44;6.37;;;3.90;;
6109;SDS011;3085;49.444;11.054;2023-02-28T04:44:12;4.63;;;3.77;;
6109;SDS011;3085;49.444;11.054;2023-02-28T04:46:40;3.53;;;3.23;;
6109;SDS011;3085;49.444;11.054;2023-02-28T04:49:07;12.10;;;5.10;;
6109;SDS011;3085;49.444;11.054;2023-02-28T04:51:35;5.07;;;4.00;;
6109;SDS011;3085;49.444;11.054;2023-02-28T04:54:05;6.93;;;4.00;;
6109;SDS011;3085;49.444;11.054;2023-02-28T04:56:33;5.30;;;4.40;;
6109;SDS011;3085;49.444;11.054;2023-02-28T04:59:03;6.20;;;4.07;;
6109;SDS011;3085;49.444;11.054;2023-02-28T05:01:30;6.40;;;4.70;;
6109;SDS011;3085;49.444;11.054;2023-02-28T05:03:59;4.23;;;3.60;;
6109;SDS011;3085;49.444;11.054;2023-02-28T05:06:28;6.90;;;4.50;;
6109;SDS011;3085;49.444;11.054;2023-02-28T05:08:57;7.90;;;5.23;;
6109;SDS011;3085;49.444;11.054;2023-02-28T05:11:25;11.13;;;4.57;;
6109;SDS011;3085;49.444;11.054;2023-02-28T05:13:58;7.80;;;4.20;;
6109;SDS011;3085;49.444;11.054;2023-02-28T05:16:27;8.30;;;4.03;;
6109;SDS011;3085;49.444;11.054;2023-02-28T05:18:54;6.03;;;4.40;;
6109;SDS011;3085;49.444;11.054;2023-02-28T05:21:23;10.00;;;4.90;;
6109;SDS011;3085;49.444;11.054;2023-02-28T05:23:52;6.60;;;4.30;;
6109;SDS011;3085;49.444;11.054;2023-02-28T05:26:19;8.73;;;5.10;;
6109;SDS011;3085;49.444;11.054;2023-02-28T05:28:46;13.70;;;4.60;;
6109;SDS011;3085;49.444;11.054;2023-02-28T05:31:14;11.40;;;4.00;;
6109;SDS011;3085;49.444;11.054;2023-02-28T05:33:42;4.27;;;3.70;;
6109;SDS011;3085;49.444;11.054;2023-02-28T05:36:09;7.20;;;4.50;;
6109;SDS011;3085;49.444;11.054;2023-02-28T05:38:37;20.67;;;4.50;;
6109;SDS011;3085;49.444;11.054;2023-02-28T05:41:05;6.80;;;4.47;;
6109;SDS011;3085;49.444;11.054;2023-02-28T05:43:33;5.63;;;4.80;;
6109;SDS011;3085;49.444;11.054;2023-02-28T05:46:02;4.80;;;4.20;;
6109;SDS011;3085;49.444;11.054;2023-02-28T05:48:31;8.23;;;5.17;;
6109;SDS011;3085;49.444;11.054;2023-02-28T05:50:59;4.37;;;3.80;;
6109;SDS011;3085;49.444;11.054;2023-02-28T05:53:27;9.00;;;4.40;;
6109;SDS011;3085;49.444;11.054;2023-02-28T05:55:54;10.43;;;4.60;;
6109;SDS011;3085;49.444;11.054;2023-02-28T05:58:22;10.57;;;4.37;;
6109;SDS011;3085;49.444;11.054;2023-02-28T06:00:50;10.20;;;4.10;;
6109;SDS011;3085;49.444;11.054;2023-02-28T06:03:21;5.30;;;4.40;;
6109;SDS011;3085;49.444;11.054;2023-02-28T06:05:48;8.57;;;4.77;;
6109;SDS011;3085;49.444;11.054;2023-02-28T06:08:18;6.07;;;5.00;;
6109;SDS011;3085;49.444;11.054;2023-02-28T06:10:45;5.63;;;3.70;;
6109;SDS011;3085;49.444;11.054;2023-02-28T06:13:12;5.70;;;4.10;;
6109;SDS011;3085;49.444;11.054;2023-02-28T06:15:41;10.13;;;5.37;;
6109;SDS011;3085;49.444;11.054;2023-02-28T06:18:11;7.77;;;5.00;;
6109;SDS011;3085;49.444;11.054;2023-02-28T06:20:38;6.90;;;4.03;;
6109;SDS011;3085;49.444;11.054;2023-02-28T06:23:05;8.27;;;5.00;;
6109;SDS011;3085;49.444;11.054;2023-02-28T06:25:34;8.43;;;4.40;;
6109;SDS011;3085;49.444;11.054;2023-02-28T06:28:02;6.27;;;4.03;;
6109;SDS011;3085;49.444;11.054;2023-02-28T06:30:29;10.03;;;4.37;;
6109;SDS011;3085;49.444;11.054;2023-02-28T06:32:58;5.67;;;4.07;;
6109;SDS011;3085;49.444;11.054;2023-02-28T06:35:25;5.13;;;3.40;;
6109;SDS011;3085;49.444;11.054;2023-02-28T06:37:52;6.37;;;4.33;;
6109;SDS011;3085;49.444;11.054;2023-02-28T06:40:19;7.50;;;5.23;;
6109;SDS011;3085;49.444;11.054;2023-02-28T06:42:48;5.17;;;3.70;;
6109;SDS011;3085;49.444;11.054;2023-02-28T06:45:15;9.67;;;4.57;;
6109;SDS011;3085;49.444;11.054;2023-02-28T06:47:42;5.67;;;4.57;;
6109;SDS011;3085;49.444;11.054;2023-02-28T06:50:10;7.13;;;4.87;;
6109;SDS011;3085;49.444;11.054;2023-02-28T06:52:38;7.50;;;4.33;;
6109;SDS011;3085;49.444;11.054;2023-02-28T06:55:06;5.83;;;3.90;;
6109;SDS011;3085;49.444;11.054;2023-02-28T06:57:34;7.90;;;4.80;;
6109;SDS011;3085;49.444;11.054;2023-02-28T07:00:04;6.30;;;4.43;;
6109;SDS011;3085;49.444;11.054;2023-02-28T07:02:33;7.73;;;5.07;;
6109;SDS011;3085;49.444;11.054;2023-02-28T07:05:00;4.83;;;3.60;;
6109;SDS011;3085;49.444;11.054;2023-02-28T07:07:27;12.17;;;5.30;;
6109;SDS011;3085;49.444;11.054;2023-02-28T07:09:54;17.70;;;6.30;;
6109;SDS011;3085;49.444;11.054;2023-02-28T07:12:21;5.67;;;3.90;;
6109;SDS011;3085;49.444;11.054;2023-02-28T07:14:48;8.93;;;4.00;;
6109;SDS011;3085;49.444;11.054;2023-02-28T07:17:16;8.30;;;4.60;;
6109;SDS011;3085;49.444;11.054;2023-02-28T07:19:43;8.23;;;5.13;;
6109;SDS011;3085;49.444;11.054;2023-02-28T07:22:10;6.33;;;4.13;;
6109;SDS011;3085;49.444;11.054;2023-02-28T07:24:37;11.10;;;5.93;;
6109;SDS011;3085;49.444;11.054;2023-02-28T07:27:03;7.63;;;4.60;;
6109;SDS011;3085;49.444;11.054;2023-02-28T07:29:31;8.50;;;3.90;;
6109;SDS011;3085;49.444;11.054;2023-02-28T07:31:58;7.50;;;4.23;;
6109;SDS011;3085;49.444;11.054;2023-02-28T07:34:26;7.80;;;5.20;;
6109;SDS011;3085;49.444;11.054;2023-02-28T07:36:54;9.83;;;4.70;;
6109;SDS011;3085;49.444;11.054;2023-02-28T07:39:21;9.00;;;4.67;;
6109;SDS011;3085;49.444;11.054;2023-02-28T07:41:48;7.17;;;5.07;;
6109;SDS011;3085;49.444;11.054;2023-02-28T07:44:15;9.63;;;5.33;;
6109;SDS011;3085;49.444;11.054;2023-02-28T07:46:42;7.67;;;5.63;;
6109;SDS011;3085;49.444;11.054;2023-02-28T07:49:09;5.83;;;4.10;;
6109;SDS011;3085;49.444;11.054;2023-02-28T07:51:37;6.90;;;4.50;;
6109;SDS011;3085;49.444;11.054;2023-02-28T07:54:04;9.13;;;5.43;;
6109;SDS011;3085;49.444;11.054;2023-02-28T07:56:31;10.80;;;6.00;;
6109;SDS011;3085;49.444;11.054;2023-02-28T07:58:58;14.40;;;5.30;;
6109;SDS011;3085;49.444;11.054;2023-02-28T08:01:26;8.17;;;4.77;;
6109;SDS011;3085;49.444;11.054;2023-02-28T08:03:53;10.10;;;5.43;;
6109;SDS011;3085;49.444;11.054;2023-02-28T08:06:22;6.90;;;5.20;;
6109;SDS011;3085;49.444;11.054;2023-02-28T08:08:52;8.87;;;5.67;;
6109;SDS011;3085;49.444;11.054;2023-02-28T08:11:21;7.20;;;5.17;;
6109;SDS011;3085;49.444;11.054;2023-02-28T08:13:48;5.53;;;4.20;;
6109;SDS011;3085;49.444;11.054;2023-02-28T08:16:15;9.07;;;5.33;;
6109;SDS011;3085;49.444;11.054;2023-02-28T08:18:47;8.77;;;5.70;;
6109;SDS011;3085;49.444;11.054;2023-02-28T08:21:14;8.07;;;5.13;;
6109;SDS011;3085;49.444;11.054;2023-02-28T08:23:41;11.83;;;5.50;;
6109;SDS011;3085;49.444;11.054;2023-02-28T08:26:09;7.33;;;4.67;;
6109;SDS011;3085;49.444;11.054;2023-02-28T08:28:36;11.57;;;4.97;;
6109;SDS011;3085;49.444;11.054;2023-02-28T08:31:06;14.57;;;4.83;;
6109;SDS011;3085;49.444;11.054;2023-02-28T08:33:34;10.10;;;5.87;;
6109;SDS011;3085;49.444;11.054;2023-02-28T08:36:01;7.37;;;5.60;;
6109;SDS011;3085;49.444;11.054;2023-02-28T08:38:28;10.30;;;4.97;;
6109;SDS011;3085;49.444;11.054;2023-02-28T08:40:58;7.07;;;5.20;;
6109;SDS011;3085;49.444;11.054;2023-02-28T08:43:27;9.07;;;5.20;;
6109;SDS011;3085;49.444;11.054;2023-02-28T08:45:55;9.70;;;4.67;;
6109;SDS011;3085;49.444;11.054;2023-02-28T08:48:22;11.53;;;5.77;;
6109;SDS011;3085;49.444;11.054;2023-02-28T08:50:55;11.37;;;6.00;;
6109;SDS011;3085;49.444;11.054;2023-02-28T08:53:23;11.27;;;6.00;;
6109;SDS011;3085;49.444;11.054;2023-02-28T08:55:56;8.60;;;5.13;;
6109;SDS011;3085;49.444;11.054;2023-02-28T08:58:24;12.00;;;5.57;;
6109;SDS011;3085;49.444;11.054;2023-02-28T09:00:53;10.73;;;5.10;;
6109;SDS011;3085;49.444;11.054;2023-02-28T09:03:20;9.43;;;4.67;;
6109;SDS011;3085;49.444;11.054;2023-02-28T09:05:54;10.60;;;5.90;;
6109;SDS011;3085;49.444;11.054;2023-02-28T09:08:22;8.73;;;4.90;;
6109;SDS011;3085;49.444;11.054;2023-02-28T09:10:49;8.83;;;4.63;;
6109;SDS011;3085;49.444;11.054;2023-02-28T09:13:17;10.40;;;5.77;;
6109;SDS011;3085;49.444;11.054;2023-02-28T09:15:43;11.10;;;5.77;;
6109;SDS011;3085;49.444;11.054;2023-02-28T09:18:12;9.03;;;4.20;;
6109;SDS011;3085;49.444;11.054;2023-02-28T09:20:39;17.30;;;6.03;;
6109;SDS011;3085;49.444;11.054;2023-02-28T09:23:06;12.37;;;5.30;;
6109;SDS011;3085;49.444;11.054;2023-02-28T09:25:33;13.93;;;5.93;;
6109;SDS011;3085;49.444;11.054;2023-02-28T09:28:01;7.43;;;4.63;;
6109;SDS011;3085;49.444;11.054;2023-02-28T09:30:28;11.23;;;5.93;;
6109;SDS011;3085;49.444;11.054;2023-02-28T09:32:56;13.27;;;5.30;;
6109;SDS011;3085;49.444;11.054;2023-02-28T09:35:24;7.90;;;4.87;;
6109;SDS011;3085;49.444;11.054;2023-02-28T09:37:52;8.40;;;5.63;;
6109;SDS011;3085;49.444;11.054;2023-02-28T09:40:20;10.60;;;5.17;;
6109;SDS011;3085;49.444;11.054;2023-02-28T09:42:50;16.37;;;5.43;;
6109;SDS011;3085;49.444;11.054;2023-02-28T09:45:21;7.50;;;5.70;;
6109;SDS011;3085;49.444;11.054;2023-02-28T09:47:51;7.50;;;4.67;;
6109;SDS011;3085;49.444;11.054;2023-02-28T09:50:22;11.93;;;5.70;;
6109;SDS011;3085;49.444;11.054;2023-02-28T09:52:58;9.00;;;5.70;;
6109;SDS011;3085;49.444;11.054;2023-02-28T09:55:28;14.47;;;7.13;;
6109;SDS011;3085;49.444;11.054;2023-02-28T09:58:00;9.77;;;5.30;;
6109;SDS011;3085;49.444;11.054;2023-02-28T10:00:28;9.43;;;5.30;;
6109;SDS011;3085;49.444;11.054;2023-02-28T10:03:04;9.63;;;5.83;;
6109;SDS011;3085;49.444;11.054;2023-02-28T10:05:47;10.47;;;4.93;;
6109;SDS011;3085;49.444;11.054;2023-02-28T10:08:19;11.93;;;5.90;;
6109;SDS011;3085;49.444;11.054;2023-02-28T10:10:51;6.90;;;4.63;;
6109;SDS011;3085;49.444;11.054;2023-02-28T10:13:22;12.13;;;5.20;;
6109;SDS011;3085;49.444;11.054;2023-02-28T10:15:55;13.87;;;5.00;;
6109;SDS011;3085;49.444;11.054;2023-02-28T10:18:26;6.30;;;4.57;;
6109;SDS011;3085;49.444;11.054;2023-02-28T10:20:58;9.30;;;4.80;;
6109;SDS011;3085;49.444;11.054;2023-02-28T10:23:26;5.60;;;4.00;;
6109;SDS011;3085;49.444;11.054;2023-02-28T10:25:58;13.20;;;4.43;;
6109;SDS011;3085;49.444;11.054;2023-02-28T10:28:27;13.70;;;5.80;;
6109;SDS011;3085;49.444;11.054;2023-02-28T10:30:56;10.73;;;4.77;;
6109;SDS011;3085;49.444;11.054;2023-02-28T10:33:25;5.83;;;3.70;;
6109;SDS011;3085;49.444;11.054;2023-02-28T10:35:55;12.27;;;5.00;;
6109;SDS011;3085;49.444;11.054;2023-02-28T10:38:24;5.77;;;4.27;;
6109;SDS011;3085;49.444;11.054;2023-02-28T10:40:52;7.77;;;4.43;;
6109;SDS011;3085;49.444;11.054;2023-02-28T10:43:30;7.30;;;5.20;;
6109;SDS011;3085;49.444;11.054;2023-02-28T10:45:58;11.50;;;6.00;;
6109;SDS011;3085;49.444;11.054;2023-02-28T10:48:32;11.90;;;6.00;;
6109;SDS011;3085;49.444;11.054;2023-02-28T10:51:02;7.10;;;4.23;;
6109;SDS011;3085;49.444;11.054;2023-02-28T10:53:33;9.30;;;5.40;;
6109;SDS011;3085;49.444;11.054;2023-02-28T10:56:06;8.23;;;5.03;;
6109;SDS011;3085;49.444;11.054;2023-02-28T10:58:46;9.53;;;4.53;;
6109;SDS011;3085;49.444;11.054;2023-02-28T11:01:16;9.73;;;5.70;;
6109;SDS011;3085;49.444;11.054;2023-02-28T11:03:45;8.50;;;4.93;;
6109;SDS011;3085;49.444;11.054;2023-02-28T11:06:14;10.00;;;4.73;;
6109;SDS011;3085;49.444;11.054;2023-02-28T11:08:46;6.90;;;5.07;;
6109;SDS011;3085;49.444;11.054;2023-02-28T11:11:15;14.83;;;4.47;;
6109;SDS011;3085;49.444;11.054;2023-02-28T11:13:43;6.53;;;4.30;;
6109;SDS011;3085;49.444;11.054;2023-02-28T11:16:12;10.23;;;4.83;;
6109;SDS011;3085;49.444;11.054;2023-02-28T11:18:41;7.50;;;4.50;;
6109;SDS011;3085;49.444;11.054;2023-02-28T11:21:15;12.93;;;5.07;;
6109;SDS011;3085;49.444;11.054;2023-02-28T11:23:47;7.87;;;5.07;;
6109;SDS011;3085;49.444;11.054;2023-02-28T11:26:17;13.13;;;6.80;;
6109;SDS011;3085;49.444;11.054;2023-02-28T11:29:05;11.30;;;6.20;;
6109;SDS011;3085;49.444;11.054;2023-02-28T11:31:37;10.63;;;5.10;;
6109;SDS011;3085;49.444;11.054;2023-02-28T11:34:20;5.13;;;3.93;;
6109;SDS011;3085;49.444;11.054;2023-02-28T11:36:51;9.70;;;5.57;;
6109;SDS011;3085;49.444;11.054;2023-02-28T11:39:20;7.83;;;4.03;;
6109;SDS011;3085;49.444;11.054;2023-02-28T11:41:52;7.80;;;4.80;;
6109;SDS011;3085;49.444;11.054;2023-02-28T11:44:33;8.93;;;4.53;;
6109;SDS011;3085;49.444;11.054;2023-02-28T11:47:12;14.17;;;4.93;;
6109;SDS011;3085;49.444;11.054;2023-02-28T11:49:47;10.60;;;6.27;;
6109;SDS011;3085;49.444;11.054;2023-02-28T11:52:34;8.07;;;4.80;;
6109;SDS011;3085;49.444;11.054;2023-02-28T11:55:11;9.23;;;4.13;;
6109;SDS011;3085;49.444;11.054;2023-02-28T11:57:56;7.40;;;5.00;;
6109;SDS011;3085;49.444;11.054;2023-02-28T12:00:40;10.23;;;5.63;;
6109;SDS011;3085;49.444;11.054;2023-02-28T12:03:24;9.60;;;4.73;;
6109;SDS011;3085;49.444;11.054;2023-02-28T12:05:57;11.27;;;4.63;;
6109;SDS011;3085;49.444;11.054;2023-02-28T12:08:38;13.20;;;4.80;;
6109;SDS011;3085;49.444;11.054;2023-02-28T12:11:16;8.97;;;4.97;;
6109;SDS011;3085;49.444;11.054;2023-02-28T12:13:57;17.63;;;4.83;;
6109;SDS011;3085;49.444;11.054;2023-02-28T12:16:49;9.90;;;5.20;;
6109;SDS011;3085;49.444;11.054;2023-02-28T12:19:25;10.00;;;5.00;;
6109;SDS011;3085;49.444;11.054;2023-02-28T12:22:14;8.70;;;4.60;;
6109;SDS011;3085;49.444;11.054;2023-02-28T12:24:55;13.43;;;6.10;;
6109;SDS011;3085;49.444;11.054;2023-02-28T12:27:46;11.30;;;4.57;;
6109;SDS011;3085;49.444;11.054;2023-02-28T12:30:16;15.90;;;4.87;;
6109;SDS011;3085;49.444;11.054;2023-02-28T12:32:48;8.93;;;4.67;;
6109;SDS011;3085;49.444;11.054;2023-02-28T12:35:19;12.20;;;5.07;;
6109;SDS011;3085;49.444;11.054;2023-02-28T12:37:51;11.83;;;5.43;;
6109;SDS011;3085;49.444;11.054;2023-02-28T12:40:23;9.90;;;4.90;;
6109;SDS011;3085;49.444;11.054;2023-02-28T12:42:58;10.03;;;5.03;;
6109;SDS011;3085;49.444;11.054;2023-02-28T12:45:31;8.17;;;4.60;;
6109;SDS011;3085;49.444;11.054;2023-02-28T12:48:08;9.67;;;6.10;;
6109;SDS011;3085;49.444;11.054;2023-02-28T12:50:39;11.80;;;5.37;;
6109;SDS011;3085;49.444;11.054;2023-02-28T12:53:08;12.63;;;5.30;;
6109;SDS011;3085;49.444;11.054;2023-02-28T12:55:41;8.70;;;4.97;;
6109;SDS011;3085;49.444;11.054;2023-02-28T12:58:17;12.23;;;4.30;;
6109;SDS011;3085;49.444;11.054;2023-02-28T13:01:00;6.80;;;4.20;;
6109;SDS011;3085;49.444;11.054;2023-02-28T13:03:45;6.87;;;4.60;;
6109;SDS011;3085;49.444;11.054;2023-02-28T13:06:45;6.43;;;4.40;;
6109;SDS011;3085;49.444;11.054;2023-02-28T13:09:32;8.10;;;4.60;;
6109;SDS011;3085;49.444;11.054;2023-02-28T13:11:59;11.20;;;4.40;;
6109;SDS011;3085;49.444;11.054;2023-02-28T13:14:29;6.37;;;4.30;;
6109;SDS011;3085;49.444;11.054;2023-02-28T13:17:02;7.63;;;4.50;;
6109;SDS011;3085;49.444;11.054;2023-02-28T13:19:38;8.87;;;4.53;;
6109;SDS011;3085;49.444;11.054;2023-02-28T13:22:15;8.20;;;4.53;;
6109;SDS011;3085;49.444;11.054;2023-02-28T13:24:45;12.40;;;5.30;;
6109;SDS011;3085;49.444;11.054;2023-02-28T13:27:21;8.20;;;5.07;;
6109;SDS011;3085;49.444;11.054;2023-02-28T13:29:58;11.20;;;4.40;;
6109;SDS011;3085;49.444;11.054;2023-02-28T13:32:31;9.50;;;4.27;;
6109;SDS011;3085;49.444;11.054;2023-02-28T13:38:17;8.07;;;5.00;;
6109;SDS011;3085;49.444;11.054;2023-02-28T13:40:49;8.77;;;5.00;;
6109;SDS011;3085;49.444;11.054;2023-02-28T13:43:16;9.53;;;5.27;;
6109;SDS011;3085;49.444;11.054;2023-02-28T13:46:06;11.27;;;6.03;;
6109;SDS011;3085;49.444;11.054;2023-02-28T13:48:37;12.10;;;6.10;;
6109;SDS011;3085;49.444;11.054;2023-02-28T13:54:11;9.87;;;4.53;;
6109;SDS011;3085;49.444;11.054;2023-02-28T13:56:51;16.00;;;6.07;;
6109;SDS011;3085;49.444;11.054;2023-02-28T13:59:28;7.53;;;4.70;;
6109;SDS011;3085;49.444;11.054;2023-02-28T14:02:08;10.83;;;5.73;;
6109;SDS011;3085;49.444;11.054;2023-02-28T14:05:00;11.23;;;5.77;;
6109;SDS011;3085;49.444;11.054;2023-02-28T14:07:32;9.73;;;5.43;;
6109;SDS011;3085;49.444;11.054;2023-02-28T14:10:04;10.63;;;5.40;;
6109;SDS011;3085;49.444;11.054;2023-02-28T14:12:52;11.67;;;5.70;;
6109;SDS011;3085;49.444;11.054;2023-02-28T14:15:41;12.07;;;6.23;;
6109;SDS011;3085;49.444;11.054;2023-02-28T14:18:24;13.27;;;5.20;;
6109;SDS011;3085;49.444;11.054;2023-02-28T14:21:16;10.50;;;4.77;;
6109;SDS011;3085;49.444;11.054;2023-02-28T14:27:05;12.33;;;5.73;;
6109;SDS011;3085;49.444;11.054;2023-02-28T14:29:45;10.13;;;5.53;;
6109;SDS011;3085;49.444;11.054;2023-02-28T14:32:40;7.80;;;5.10;;
6109;SDS011;3085;49.444;11.054;2023-02-28T14:35:16;13.53;;;5.70;;
6109;SDS011;3085;49.444;11.054;2023-02-28T14:38:04;9.70;;;4.80;;
6109;SDS011;3085;49.444;11.054;2023-02-28T14:40:46;17.53;;;6.30;;
6109;SDS011;3085;49.444;11.054;2023-02-28T14:43:19;13.47;;;6.10;;
6109;SDS011;3085;49.444;11.054;2023-02-28T14:45:49;10.50;;;5.20;;
6109;SDS011;3085;49.444;11.054;2023-02-28T14:48:17;11.30;;;5.50;;
6109;SDS011;3085;49.444;11.054;2023-02-28T14:50:51;13.33;;;5.87;;
6109;SDS011;3085;49.444;11.054;2023-02-28T14:53:20;14.77;;;6.07;;
6109;SDS011;3085;49.444;11.054;2023-02-28T14:55:48;10.13;;;5.00;;
6109;SDS011;3085;49.444;11.054;2023-02-28T14:58:24;19.10;;;7.90;;
6109;SDS011;3085;49.444;11.054;2023-02-28T15:00:53;12.10;;;5.93;;
6109;SDS011;3085;49.444;11.054;2023-02-28T15:03:22;11.23;;;5.47;;
6109;SDS011;3085;49.444;11.054;2023-02-28T15:05:55;16.30;;;6.67;;
6109;SDS011;3085;49.444;11.054;2023-02-28T15:08:23;13.30;;;4.77;;
6109;SDS011;3085;49.444;11.054;2023-02-28T15:10:54;14.73;;;6.63;;
6109;SDS011;3085;49.444;11.054;2023-02-28T15:13:23;10.40;;;6.13;;
6109;SDS011;3085;49.444;11.054;2023-02-28T15:16:00;16.73;;;5.73;;
6109;SDS011;3085;49.444;11.054;2023-02-28T15:18:31;9.60;;;5.27;;
6109;SDS011;3085;49.444;11.054;2023-02-28T15:21:06;12.97;;;6.00;;
6109;SDS011;3085;49.444;11.054;2023-02-28T15:23:37;17.37;;;6.80;;
6109;SDS011;3085;49.444;11.054;2023-02-28T15:26:06;10.70;;;7.20;;
6109;SDS011;3085;49.444;11.054;2023-02-28T15:28:36;9.80;;;5.90;;
6109;SDS011;3085;49.444;11.054;2023-02-28T15:31:04;11.13;;;6.43;;
6109;SDS011;3085;49.444;11.054;2023-02-28T15:33:52;9.70;;;5.40;;
6109;SDS011;3085;49.444;11.054;2023-02-28T15:36:23;13.93;;;6.10;;
6109;SDS011;3085;49.444;11.054;2023-02-28T15:38:53;15.03;;;5.70;;
6109;SDS011;3085;49.444;11.054;2023-02-28T15:41:22;11.83;;;6.20;;